Time;durP1;ratioP1;P1;durP2;ratioP2;P2;SDS_P1;SDS_P2;PMS_P1;PMS_P2;Temp;Humidity;BMP_temperature;BMP_pressure;BME280_temperature;BME280_humidity;BME280_pressure;Samples;Min_cycle;Max_cycle;Signal;HPM_P1;HPM_P2
2022/05/04 00:00:30;;;;;;;7.33;4.10;;;;;;;-145.69;100.00;72009.34;5073704;28;20223;-76
2022/05/04 00:02:56;;;;;;;4.97;3.30;;;;;;;-145.69;100.00;72007.34;5073530;28;20205;-76
2022/05/04 00:05:28;;;;;;;6.90;3.20;;;;;;;-145.69;100.00;72011.34;5073231;28;20657;-76
2022/05/04 00:08:01;;;;;;;6.73;3.10;;;;;;;-145.69;100.00;72017.31;5073394;28;20201;-76
2022/05/04 00:10:31;;;;;;;4.57;3.27;;;;;;;-145.69;100.00;72023.28;5073506;28;20574;-75
2022/05/04 00:12:58;;;;;;;6.40;4.10;;;;;;;-145.69;100.00;72015.31;5073192;28;20204;-76
2022/05/04 00:15:24;;;;;;;4.97;3.33;;;;;;;-145.69;100.00;72039.19;5073566;28;20226;-76
2022/05/04 00:17:51;;;;;;;5.67;3.77;;;;;;;-145.69;100.00;72023.28;5073195;28;20245;-75
2022/05/04 00:20:19;;;;;;;9.00;3.83;;;;;;;-145.69;100.00;72023.28;5073304;28;20252;-76
2022/05/04 00:22:49;;;;;;;10.00;4.00;;;;;;;-145.69;100.00;72023.28;5072833;28;20202;-76
2022/05/04 00:25:18;;;;;;;7.90;4.27;;;;;;;-145.69;100.00;72015.31;5073225;28;20205;-76
2022/05/04 00:27:48;;;;;;;6.27;4.20;;;;;;;-145.69;100.00;72025.28;5073059;28;20277;-76
2022/05/04 00:30:21;;;;;;;5.30;3.70;;;;;;;-145.69;100.00;72047.16;5073296;28;20202;-76
2022/05/04 00:32:47;;;;;;;6.03;3.70;;;;;;;-145.69;100.00;72073.03;5073295;28;20207;-76
2022/05/04 00:35:16;;;;;;;7.77;3.47;;;;;;;-145.69;100.00;72090.94;5073104;28;20264;-76
2022/05/04 00:37:43;;;;;;;5.63;3.40;;;;;;;-145.69;100.00;72104.88;5073054;28;20206;-76
2022/05/04 00:40:11;;;;;;;5.30;3.60;;;;;;;-145.69;100.00;72102.88;5073145;28;20276;-76
2022/05/04 00:42:39;;;;;;;5.27;3.10;;;;;;;-145.69;100.00;72122.78;5072900;28;20201;-76
2022/05/04 00:45:06;;;;;;;7.07;4.20;;;;;;;-145.69;100.00;72106.88;5072980;28;20599;-75
2022/05/04 00:47:33;;;;;;;9.00;4.17;;;;;;;-145.69;100.00;72086.97;5072742;28;20203;-75
2022/05/04 00:50:07;;;;;;;7.53;4.23;;;;;;;-145.69;100.00;72082.97;5072941;28;20270;-75
2022/05/04 00:52:36;;;;;;;8.70;4.40;;;;;;;-145.69;100.00;72073.03;5072997;28;20263;-76
2022/05/04 00:55:07;;;;;;;6.57;4.17;;;;;;;-145.69;100.00;72055.13;5072908;28;20202;-76
2022/05/04 01:00:26;;;;;;;5.43;4.00;;;;;;;-145.69;100.00;72043.19;5072678;28;20300;-76
2022/05/04 01:02:52;;;;;;;7.27;3.50;;;;;;;-145.69;100.00;72061.09;5073047;28;20210;-76
2022/05/04 01:05:24;;;;;;;5.20;3.40;;;;;;;-145.69;100.00;72075.03;5072820;28;20210;-76
2022/05/04 01:08:04;;;;;;;5.90;3.80;;;;;;;-145.69;100.00;72053.13;5072683;28;20558;-75
2022/05/04 01:10:36;;;;;;;10.50;4.20;;;;;;;-145.69;100.00;72037.22;5072638;28;20290;-76
2022/05/04 01:13:05;;;;;;;6.80;4.13;;;;;;;-145.69;100.00;72057.13;5072585;28;20222;-76
2022/05/04 01:15:32;;;;;;;7.10;3.97;;;;;;;-145.69;100.00;72065.06;5072429;28;20199;-76
2022/05/04 01:18:04;;;;;;;6.70;3.73;;;;;;;-145.69;100.00;72067.06;5072546;28;20657;-75
2022/05/04 01:20:31;;;;;;;7.45;4.80;;;;;;;-145.69;100.00;72059.09;5071603;28;20484;-76
2022/05/04 01:23:00;;;;;;;6.80;3.90;;;;;;;-145.69;100.00;72051.16;5073749;28;20190;-76
2022/05/04 01:25:31;;;;;;;6.10;3.60;;;;;;;-145.69;100.00;72063.09;5076633;28;20665;-76
2022/05/04 01:27:59;;;;;;;7.30;3.90;;;;;;;-145.69;100.00;72057.13;5076543;28;20653;-76
2022/05/04 01:30:32;;;;;;;6.00;3.60;;;;;;;-145.69;100.00;72035.22;5076750;28;20195;-76
2022/05/04 01:32:59;;;;;;;6.30;4.00;;;;;;;-145.69;100.00;72037.22;5076577;28;20210;-76
2022/05/04 01:35:28;;;;;;;8.73;3.53;;;;;;;-145.69;100.00;72039.19;5075478;28;20210;-76
2022/05/04 01:37:55;;;;;;;9.00;3.70;;;;;;;-145.69;100.00;72039.19;5076491;28;20198;-75
2022/05/04 01:40:28;;;;;;;7.20;3.97;;;;;;;-145.69;100.00;72039.19;5067878;28;20199;-76
2022/05/04 01:42:57;;;;;;;6.77;4.13;;;;;;;-145.69;100.00;72043.19;5066896;28;20199;-76
2022/05/04 01:45:23;;;;;;;7.07;3.97;;;;;;;-145.69;100.00;72043.19;5076286;28;20610;-76
2022/05/04 01:47:52;;;;;;;6.47;3.73;;;;;;;-145.69;100.00;72045.16;5075898;28;20279;-76
2022/05/04 01:50:19;;;;;;;9.10;4.13;;;;;;;-145.69;100.00;72047.16;5075395;28;20244;-76
2022/05/04 01:52:48;;;;;;;5.17;3.70;;;;;;;-145.69;100.00;72065.06;5075996;28;20688;-76
2022/05/04 01:55:15;;;;;;;4.43;3.13;;;;;;;-145.69;100.00;72067.06;5076286;28;20199;-76
2022/05/04 01:57:54;;;;;;;4.33;3.33;;;;;;;-145.69;100.00;72079.00;5075970;28;20202;-76
2022/05/04 02:00:21;;;;;;;7.17;3.37;;;;;;;-145.69;100.00;72075.03;5075840;28;20252;-76
2022/05/04 02:02:50;;;;;;;7.47;3.87;;;;;;;-145.69;100.00;72081.00;5076080;28;20264;-76
2022/05/04 02:05:28;;;;;;;7.00;3.93;;;;;;;-145.69;100.00;72086.97;5075594;28;20581;-76
2022/05/04 02:08:08;;;;;;;5.87;3.80;;;;;;;-145.69;100.00;72088.97;5075984;28;20198;-76
2022/05/04 02:10:38;;;;;;;8.50;4.13;;;;;;;-145.69;100.00;72082.97;5075921;28;20252;-76
2022/05/04 02:13:06;;;;;;;8.90;4.30;;;;;;;-145.69;100.00;72081.00;5075322;28;20195;-76
2022/05/04 02:15:33;;;;;;;7.57;3.80;;;;;;;-145.69;100.00;72081.00;5075348;28;20206;-77
2022/05/04 02:18:02;;;;;;;5.97;3.83;;;;;;;-145.69;100.00;72077.00;5075432;28;20203;-76
2022/05/04 02:20:32;;;;;;;5.47;3.80;;;;;;;-145.69;100.00;72088.97;5075535;28;20195;-75
2022/05/04 02:23:07;;;;;;;7.77;4.00;;;;;;;-145.69;100.00;72084.97;5055662;28;20330;-76
2022/05/04 02:25:40;;;;;;;5.53;3.80;;;;;;;-145.69;100.00;72094.94;5055322;28;20273;-76
2022/05/04 02:28:11;;;;;;;6.53;3.80;;;;;;;-145.69;100.00;72102.88;5055505;28;20210;-75
2022/05/04 02:30:39;;;;;;;5.93;4.10;;;;;;;-145.69;100.00;72073.03;5055538;28;20257;-76
2022/05/04 02:33:06;;;;;;;5.70;4.23;;;;;;;-145.69;100.00;72061.09;5055251;28;20199;-75
2022/05/04 02:38:24;;;;;;;7.70;3.77;;;;;;;-145.69;100.00;72071.03;5055266;28;20277;-76
2022/05/04 02:40:55;;;;;;;5.13;3.30;;;;;;;-145.69;100.00;72081.00;5055387;28;20565;-75
2022/05/04 02:43:26;;;;;;;6.07;3.97;;;;;;;-145.69;100.00;72069.06;5071305;28;20249;-76
2022/05/04 02:45:59;;;;;;;5.57;3.20;;;;;;;-145.69;100.00;72075.03;5075084;28;20248;-75
2022/05/04 02:48:37;;;;;;;7.17;3.60;;;;;;;-145.69;100.00;72075.03;5074487;28;20294;-76
2022/05/04 02:51:03;;;;;;;12.10;4.10;;;;;;;-145.69;100.00;72075.03;5075087;28;20565;-75
2022/05/04 02:53:30;;;;;;;6.23;4.10;;;;;;;-145.69;100.00;72079.00;5074675;28;20202;-76
2022/05/04 02:55:58;;;;;;;5.07;3.70;;;;;;;-145.69;100.00;72086.97;5074651;28;20291;-76
2022/05/04 02:58:28;;;;;;;7.37;3.80;;;;;;;-145.69;100.00;72086.97;5074722;28;20581;-76
2022/05/04 03:02:26;;;;;;;6.70;3.77;;;;;;;-145.69;100.00;72090.94;5074681;28;20280;-76
2022/05/04 03:03:58;;;;;;;6.60;3.40;;;;;;;-145.69;100.00;72096.91;5074608;28;20195;-76
2022/05/04 03:06:25;;;;;;;8.43;3.80;;;;;;;-145.69;100.00;72090.94;5074898;28;20210;-75
2022/05/04 03:08:53;;;;;;;7.53;4.30;;;;;;;-145.69;100.00;72077.00;5074713;28;20206;-75
2022/05/04 03:14:09;;;;;;;5.67;3.63;;;;;;;-145.69;100.00;72055.13;5054509;28;20684;-75
2022/05/04 03:16:39;;;;;;;9.73;3.80;;;;;;;-145.69;100.00;72039.19;5054561;28;20265;-76
2022/05/04 03:19:10;;;;;;;7.17;3.40;;;;;;;-145.69;100.00;72039.19;5054590;28;20203;-76
2022/05/04 03:21:39;;;;;;;6.73;3.67;;;;;;;-145.69;100.00;72027.25;5054106;28;20255;-75
2022/05/04 03:24:06;;;;;;;6.40;3.50;;;;;;;-145.69;100.00;72025.28;5054303;28;20206;-76
2022/05/04 03:26:35;;;;;;;5.70;3.50;;;;;;;-145.69;100.00;72023.28;5054578;28;20286;-75
2022/05/04 03:29:07;;;;;;;4.23;3.03;;;;;;;-145.69;100.00;72027.25;5053594;28;20210;-76
2022/05/04 03:31:43;;;;;;;4.83;3.63;;;;;;;-145.69;100.00;72027.25;5054468;28;20673;-76
2022/05/04 03:34:10;;;;;;;5.20;3.43;;;;;;;-145.69;100.00;72025.28;5054225;28;20203;-75
2022/05/04 03:36:42;;;;;;;7.57;3.70;;;;;;;-145.69;100.00;72025.28;5054281;28;20203;-76
2022/05/04 03:39:09;;;;;;;5.43;3.83;;;;;;;-145.69;100.00;72023.28;5054383;28;20199;-76
2022/05/04 03:41:38;;;;;;;5.73;3.43;;;;;;;-145.69;100.00;72029.25;5053929;28;20216;-76
2022/05/04 03:44:14;;;;;;;5.83;4.00;;;;;;;-145.69;100.00;72025.28;5054198;28;20212;-76
2022/05/04 03:46:46;;;;;;;7.33;3.40;;;;;;;-145.69;100.00;72027.25;5053255;28;20223;-76
2022/05/04 03:49:22;;;;;;;5.27;3.70;;;;;;;-145.69;100.00;72027.25;5053891;28;20235;-76
2022/05/04 03:51:49;;;;;;;5.77;3.30;;;;;;;-145.69;100.00;72027.25;5054077;28;20207;-76
2022/05/04 03:54:16;;;;;;;4.97;3.37;;;;;;;-145.69;100.00;72033.22;5053765;28;20219;-75
2022/05/04 03:56:43;;;;;;;6.30;3.43;;;;;;;-145.69;100.00;72035.22;5053365;28;20210;-76
2022/05/04 03:59:09;;;;;;;4.30;3.50;;;;;;;-145.69;100.00;72039.19;5053398;28;20200;-76
2022/05/04 04:01:47;;;;;;;5.67;3.53;;;;;;;-145.69;100.00;72033.22;5053836;28;20234;-76
2022/05/04 04:04:17;;;;;;;9.07;4.00;;;;;;;-145.69;100.00;72035.22;5053683;28;20214;-76
2022/05/04 04:06:47;;;;;;;4.90;3.53;;;;;;;-145.69;100.00;72011.34;5053345;28;20195;-76
2022/05/04 04:09:16;;;;;;;10.07;4.70;;;;;;;-145.69;100.00;71991.44;5053057;28;20807;-76
2022/05/04 04:11:49;;;;;;;5.77;3.40;;;;;;;-145.69;100.00;71995.41;5057914;28;20560;-76
2022/05/04 04:14:17;;;;;;;8.23;3.97;;;;;;;-145.69;100.00;71985.47;5073845;28;20203;-75
2022/05/04 04:16:44;;;;;;;4.77;3.33;;;;;;;-145.69;100.00;71977.50;5073305;28;20198;-76
2022/05/04 04:19:13;;;;;;;8.90;3.90;;;;;;;-145.69;100.00;71971.53;5073834;28;20202;-75
2022/05/04 04:21:52;;;;;;;4.63;3.30;;;;;;;-145.69;100.00;71969.53;5073285;28;20219;-76
2022/05/04 04:24:21;;;;;;;4.90;3.20;;;;;;;-145.69;100.00;71965.56;5073190;28;20210;-76
2022/05/04 04:26:48;;;;;;;4.63;3.00;;;;;;;-145.69;100.00;71969.53;5073593;28;20225;-76
2022/05/04 04:29:14;;;;;;;5.57;3.30;;;;;;;-145.69;100.00;71967.56;5073287;28;20199;-76
2022/05/04 04:31:41;;;;;;;5.10;3.60;;;;;;;-145.69;100.00;71975.50;5073463;28;20206;-76
2022/05/04 04:34:16;;;;;;;5.23;3.43;;;;;;;-145.69;100.00;71969.53;5072870;28;20203;-76
2022/05/04 04:36:48;;;;;;;6.33;3.43;;;;;;;-145.69;100.00;71967.56;5073317;28;20198;-76
2022/05/04 04:39:14;;;;;;;9.60;3.77;;;;;;;-145.69;100.00;71961.59;5073257;28;20209;-76
2022/05/04 04:41:44;;;;;;;5.63;3.30;;;;;;;-145.69;100.00;71955.63;5072400;28;20187;-76
2022/05/04 04:44:18;;;;;;;7.73;3.50;;;;;;;-145.69;100.00;71951.63;5073338;28;20198;-76
2022/05/04 04:46:47;;;;;;;5.00;3.20;;;;;;;-145.69;100.00;71943.69;5073134;28;20206;-76
2022/05/04 04:49:14;;;;;;;9.00;3.43;;;;;;;-145.69;100.00;71935.72;5072677;28;20230;-76
2022/05/04 04:51:40;;;;;;;4.93;3.50;;;;;;;-145.69;100.00;71931.72;5073506;28;20229;-76
2022/05/04 04:54:13;;;;;;;5.97;3.20;;;;;;;-145.69;100.00;71923.78;5072953;28;20199;-76
2022/05/04 04:56:45;;;;;;;4.50;3.50;;;;;;;-145.69;100.00;71915.81;5072772;28;20206;-76
2022/05/04 04:59:20;;;;;;;6.13;3.23;;;;;;;-145.69;100.00;71901.88;5072290;28;20611;-76
2022/05/04 05:01:49;;;;;;;9.43;3.03;;;;;;;-145.69;100.00;71891.94;5072760;28;20561;-76
2022/05/04 05:04:16;;;;;;;3.90;2.80;;;;;;;-145.69;100.00;71889.94;5073134;28;20206;-76
2022/05/04 05:06:45;;;;;;;4.60;2.83;;;;;;;-145.69;100.00;71878.00;5072948;28;20206;-76
2022/05/04 05:09:16;;;;;;;8.90;3.13;;;;;;;-145.69;100.00;71876.00;5072811;28;20199;-76
2022/05/04 05:11:44;;;;;;;4.23;3.00;;;;;;;-145.69;100.00;71870.03;5072731;28;20199;-77
2022/05/04 05:16:56;;;;;;;4.13;2.97;;;;;;;-145.69;100.00;71840.19;5072663;28;20205;-77
2022/05/04 05:19:25;;;;;;;5.80;2.90;;;;;;;-145.69;100.00;71832.22;5073094;28;20244;-77
2022/05/04 05:21:52;;;;;;;4.10;2.70;;;;;;;-145.69;100.00;71822.28;5072558;28;20623;-76
2022/05/04 05:24:28;;;;;;;5.10;3.10;;;;;;;-145.69;100.00;71808.34;5072574;28;20198;-76
2022/05/04 05:26:59;;;;;;;4.43;2.70;;;;;;;-145.69;100.00;71790.44;5072181;28;20209;-76
2022/05/04 05:29:29;;;;;;;3.47;2.40;;;;;;;-145.69;100.00;71768.53;5072720;28;20206;-76
2022/05/04 05:32:05;;;;;;;5.67;2.67;;;;;;;-145.69;100.00;71762.56;5072720;28;20203;-76
2022/05/04 05:34:33;;;;;;;4.83;2.03;;;;;;;-145.69;100.00;71754.63;5072724;28;20210;-77
2022/05/04 05:37:00;;;;;;;2.93;2.20;;;;;;;-145.69;100.00;71736.72;5072268;28;20198;-77
2022/05/04 05:39:33;;;;;;;3.37;2.50;;;;;;;-145.69;100.00;71726.75;5072462;28;20205;-76
2022/05/04 05:42:00;;;;;;;2.73;2.17;;;;;;;-145.69;100.00;71710.84;5069758;28;20234;-77
2022/05/04 05:44:27;;;;;;;5.13;2.50;;;;;;;-145.69;100.00;71694.91;5071985;28;20442;-76
2022/05/04 05:46:53;;;;;;;4.70;2.27;;;;;;;-145.69;100.00;71684.97;5072478;28;20198;-77
2022/05/04 05:49:22;;;;;;;2.63;2.10;;;;;;;-145.69;100.00;71673.03;5072113;28;20234;-77
2022/05/04 05:51:49;;;;;;;4.73;2.10;;;;;;;-145.69;100.00;71669.03;5072198;28;20253;-77
2022/05/04 05:54:16;;;;;;;2.97;2.20;;;;;;;-145.69;100.00;71661.09;5072128;28;20198;-77
2022/05/04 05:56:56;;;;;;;4.23;2.20;;;;;;;-145.69;100.00;71623.28;5072541;28;20203;-77
2022/05/04 05:59:26;;;;;;;2.67;1.97;;;;;;;-145.69;100.00;71581.50;5072504;28;20198;-77
2022/05/04 06:02:02;;;;;;;4.17;2.40;;;;;;;-145.69;100.00;71555.63;5071213;28;20206;-77
2022/05/04 06:04:28;;;;;;;4.00;2.57;;;;;;;-145.69;100.00;71551.63;5072661;28;20207;-77
2022/05/04 06:06:55;;;;;;;4.10;2.10;;;;;;;-145.69;100.00;71541.69;5072398;28;20207;-77
2022/05/04 06:09:22;;;;;;;3.77;1.90;;;;;;;-145.69;100.00;71519.81;5073121;28;20203;-77
2022/05/04 06:11:54;;;;;;;4.27;2.03;;;;;;;-145.69;100.00;71509.84;5075621;28;20199;-77
2022/05/04 06:14:20;;;;;;;3.20;2.10;;;;;;;-145.69;100.00;71442.19;5075671;28;20207;-77
2022/05/04 06:16:51;;;;;;;2.97;1.63;;;;;;;-145.69;100.00;71388.47;5075427;28;20205;-77
2022/05/04 06:19:21;;;;;;;1.77;1.42;;;;;;;-145.69;100.00;71356.63;5075968;28;20245;-77
2022/05/04 06:21:49;;;;;;;2.83;1.55;;;;;;;-145.69;100.00;71320.81;5075533;28;20557;-77
2022/05/04 06:24:15;;;;;;;1.67;1.50;;;;;;;-145.69;95.13;71249.19;5075764;28;20336;-77
2022/05/04 06:26:46;;;;;;;3.35;1.42;;;;;;;-145.69;89.68;71171.56;5074600;28;20449;-77
2022/05/04 06:29:17;;;;;;;4.55;1.38;;;;;;;-145.69;87.28;71127.81;5075381;28;20199;-77
2022/05/04 06:34:27;;;;;;;5.13;1.65;;;;;;;-145.69;90.08;71143.72;5075000;28;20201;-77
2022/05/04 06:36:54;;;;;;;4.63;1.38;;;;;;;-145.69;91.80;71113.88;5075352;28;20229;-77
2022/05/04 06:39:29;;;;;;;2.30;1.45;;;;;;;-145.69;76.83;71030.31;5075474;28;20221;-77
2022/05/04 06:42:01;;;;;;;2.08;1.35;;;;;;;-145.69;71.89;71008.41;5075216;28;20197;-77
2022/05/04 06:44:42;;;;;;;2.28;1.42;;;;;;;-145.69;69.73;70954.69;5075386;28;20203;-77
2022/05/04 06:47:10;;;;;;;4.75;1.50;;;;;;;-145.69;65.16;70887.06;5075313;28;20207;-77
2022/05/04 06:49:37;;;;;;;3.17;1.80;;;;;;;-145.69;62.13;71028.31;5074946;28;20238;-77
2022/05/04 06:52:04;;;;;;;1.60;1.13;;;;;;;-145.69;67.63;71016.38;5075033;28;20281;-77
2022/05/04 06:54:30;;;;;;;3.40;1.85;;;;;;;-145.69;64.53;70932.81;5074630;28;20214;-77
2022/05/04 06:57:06;;;;;;;1.92;1.60;;;;;;;-145.69;65.98;70992.50;5074554;28;20218;-77
2022/05/04 06:59:39;;;;;;;2.38;1.50;;;;;;;-145.69;68.50;70944.75;5074694;28;20281;-77
2022/05/04 07:02:05;;;;;;;3.20;1.58;;;;;;;-145.69;65.54;70992.50;5074820;28;20195;-77
2022/05/04 07:04:32;;;;;;;1.85;1.55;;;;;;;-145.69;69.33;71050.22;5074566;28;20646;-76
2022/05/04 07:07:01;;;;;;;2.70;1.55;;;;;;;-145.69;71.76;71074.09;5074378;28;20624;-77
2022/05/04 07:09:27;;;;;;;2.43;1.70;;;;;;;-145.69;70.68;71139.75;5073952;28;20441;-76
2022/05/04 07:11:58;;;;;;;2.92;1.85;;;;;;;-145.69;78.62;71171.56;5074947;28;20202;-76
2022/05/04 07:14:26;;;;;;;2.75;2.10;;;;;;;-145.69;69.56;71151.69;5074946;28;20627;-77
2022/05/04 07:16:54;;;;;;;2.53;1.90;;;;;;;-145.69;72.69;71183.50;5074671;28;20203;-76
2022/05/04 07:19:23;;;;;;;3.95;1.83;;;;;;;-145.69;74.50;71217.34;5074514;28;20210;-77
2022/05/04 07:21:49;;;;;;;2.17;1.70;;;;;;;-145.69;74.64;71207.38;5073776;28;20656;-76
2022/05/04 07:24:16;;;;;;;2.95;2.00;;;;;;;-145.69;73.06;71191.47;5074332;28;20226;-76
2022/05/04 07:26:43;;;;;;;4.72;2.30;;;;;;;-145.69;71.32;71183.50;5074509;28;20201;-76
2022/05/04 07:29:10;;;;;;;3.55;2.33;;;;;;;-145.69;68.53;71173.56;5074041;28;20206;-76
2022/05/04 07:31:37;;;;;;;2.97;2.20;;;;;;;-145.69;66.55;71159.63;5069094;28;20203;-76
2022/05/04 07:34:26;;;;;;;3.28;2.20;;;;;;;-145.69;72.15;71149.69;5054257;28;20238;-76
2022/05/04 07:36:52;;;;;;;3.17;2.25;;;;;;;-145.69;71.17;71095.97;5054433;28;20208;-77
2022/05/04 07:42:27;;;;;;;3.75;2.10;;;;;;;-145.69;71.78;71097.97;5053806;28;20202;-78
2022/05/04 07:45:03;;;;;;;3.65;2.25;;;;;;;-145.69;74.14;71064.13;5054466;28;20195;-78
2022/05/04 07:47:32;;;;;;;3.58;2.30;;;;;;;-145.69;69.18;71072.09;5053975;28;20195;-77
2022/05/04 07:50:03;;;;;;;5.65;2.63;;;;;;;-145.69;75.68;71030.31;5053885;28;20227;-77
2022/05/04 07:52:30;;;;;;;4.90;2.25;;;;;;;-145.69;73.94;70992.50;5053870;28;20200;-77
2022/05/04 07:54:56;;;;;;;5.35;2.72;;;;;;;-145.69;74.90;70984.53;5053737;28;20680;-76
2022/05/04 07:57:23;;;;;;;2.92;2.05;;;;;;;-145.69;68.52;70964.66;5053714;28;20581;-77
2022/05/04 08:05:30;;;;;;;3.15;2.00;;;;;;;-145.69;67.58;70960.66;5072946;28;20255;-77
2022/05/04 08:07:56;;;;;;;5.53;2.17;;;;;;;-145.69;74.58;70920.88;5073355;28;20673;-76
2022/05/04 08:10:27;;;;;;;5.47;2.13;;;;;;;-145.69;62.98;70972.59;5073560;28;20199;-77
2022/05/04 08:12:59;;;;;;;4.43;2.30;;;;;;;-145.69;60.89;70962.66;5073459;28;20593;-76
2022/05/04 08:15:31;;;;;;;5.20;2.20;;;;;;;-145.69;71.15;70936.78;5073460;28;20272;-77
2022/05/04 08:18:03;;;;;;;4.10;2.20;;;;;;;-145.69;61.37;70944.75;5073663;28;20202;-76
2022/05/04 08:20:34;;;;;;;4.20;2.38;;;;;;;-145.69;65.98;70964.66;5073216;28;20645;-77
2022/05/04 08:23:09;;;;;;;3.90;2.00;;;;;;;-145.69;72.15;70924.84;5073434;28;20226;-77
2022/05/04 08:25:39;;;;;;;5.85;2.03;;;;;;;-145.69;61.22;70895.00;5073261;28;20213;-77
2022/05/04 08:28:09;;;;;;;4.55;2.05;;;;;;;-145.69;59.74;70889.03;5073213;28;20203;-77
2022/05/04 08:30:38;;;;;;;8.07;2.22;;;;;;;-145.69;69.19;70859.19;5073059;28;20203;-77
2022/05/04 08:33:04;;;;;;;4.10;2.33;;;;;;;-145.69;55.39;70871.13;5072776;28;20680;-77
2022/05/04 08:35:40;;;;;;;6.57;2.47;;;;;;;-145.69;57.91;70851.25;5073062;28;20202;-77
2022/05/04 08:38:09;;;;;;;5.32;2.45;;;;;;;-145.69;54.52;70885.06;5072848;28;20202;-78
2022/05/04 08:40:44;;;;;;;4.43;2.42;;;;;;;-145.69;56.70;70885.06;5072879;28;20195;-78
2022/05/04 08:43:24;;;;;;;3.42;2.10;;;;;;;-145.69;56.63;70877.09;5072854;28;20222;-78
2022/05/04 08:46:06;;;;;;;5.30;2.13;;;;;;;-145.69;53.70;70883.06;5072703;28;20210;-77
2022/05/04 08:48:40;;;;;;;5.20;1.90;;;;;;;-145.69;58.21;70883.06;5072835;28;20206;-78
2022/05/04 08:51:15;;;;;;;4.22;2.38;;;;;;;-145.69;55.34;70885.06;5073341;28;20267;-80
2022/05/04 08:53:44;;;;;;;4.72;2.20;;;;;;;-145.69;60.25;70944.75;5072952;28;20202;-77
2022/05/04 08:56:12;;;;;;;4.88;2.47;;;;;;;-145.69;56.70;70918.88;5073015;28;20202;-77
2022/05/04 08:58:45;;;;;;;4.05;2.13;;;;;;;-145.69;57.79;70877.09;5072641;28;20210;-78
2022/05/04 09:01:11;;;;;;;4.60;2.25;;;;;;;-145.69;53.32;70889.03;5073015;28;20195;-77
2022/05/04 09:03:38;;;;;;;1.77;1.55;;;;;;;-145.69;56.56;70916.91;5071621;28;20227;-77
2022/05/04 09:06:05;;;;;;;9.65;3.13;;;;;;;-145.69;54.33;70920.88;5064042;28;20687;-76
2022/05/04 09:08:53;;;;;;;5.65;2.97;;;;;;;-145.69;53.23;70964.66;5072339;28;20222;-76
2022/05/04 09:11:21;;;;;;;6.35;3.10;;;;;;;-145.69;57.04;70912.91;5072642;28;20199;-76
2022/05/04 09:13:47;;;;;;;5.65;2.97;;;;;;;-145.69;59.23;70887.06;5071938;28;20248;-76
2022/05/04 09:16:31;;;;;;;5.32;2.47;;;;;;;-145.69;56.23;70918.88;5072568;28;20293;-76
2022/05/04 09:19:00;;;;;;;6.43;2.50;;;;;;;-145.69;55.72;70887.06;5072964;28;20209;-76
2022/05/04 09:21:29;;;;;;;3.72;2.63;;;;;;;-145.69;57.93;70893.03;5072556;28;20736;-77
2022/05/04 09:24:13;;;;;;;6.95;2.50;;;;;;;-145.69;58.53;70863.19;5072564;28;20271;-76
2022/05/04 09:26:54;;;;;;;9.20;3.50;;;;;;;-145.69;56.15;70861.19;5070721;28;20252;-76
2022/05/04 09:29:33;;;;;;;7.03;2.80;;;;;;;-145.69;57.53;70835.31;5072719;28;20254;-78
2022/05/04 09:32:00;;;;;;;5.00;2.65;;;;;;;-145.69;56.17;70837.31;5072284;28;20607;-78
2022/05/04 09:34:46;;;;;;;6.30;2.22;;;;;;;-145.69;54.08;70789.56;5071687;28;20298;-77
2022/05/04 09:45:52;;;;;;;4.05;1.90;;;;;;;-145.69;48.74;70787.56;5075652;28;20240;-78
2022/05/04 09:48:29;;;;;;;3.60;2.10;;;;;;;-145.69;51.16;70761.72;5061805;28;20200;-78
2022/05/04 09:50:58;;;;;;;3.28;2.13;;;;;;;-145.69;52.10;70747.78;5056386;28;20294;-77
2022/05/04 09:53:27;;;;;;;2.38;1.55;;;;;;;-145.69;48.18;70745.78;5056087;28;20238;-78
2022/05/04 09:55:55;;;;;;;2.85;1.90;;;;;;;-145.69;50.25;70755.75;5061610;28;20194;-77
2022/05/04 09:58:24;;;;;;;3.78;1.70;;;;;;;-145.69;48.44;70761.72;5076221;28;20202;-77
2022/05/04 10:00:51;;;;;;;7.63;1.90;;;;;;;-145.69;46.87;70741.81;5076062;28;20233;-78
2022/05/04 10:03:23;;;;;;;2.08;1.52;;;;;;;-145.69;51.66;70741.81;5075548;28;20234;-78
2022/05/04 10:05:50;;;;;;;2.53;1.63;;;;;;;-145.69;52.62;70688.09;5075858;28;20195;-77
2022/05/04 10:08:16;;;;;;;3.63;1.90;;;;;;;-145.69;47.29;70765.69;5076068;28;20209;-77
2022/05/04 10:10:43;;;;;;;4.25;1.70;;;;;;;-145.69;51.16;70713.97;5075968;28;20603;-78
2022/05/04 10:13:11;;;;;;;3.90;1.60;;;;;;;-145.69;47.88;70664.22;5075780;28;20233;-77
2022/05/04 10:15:39;;;;;;;2.65;1.70;;;;;;;-145.69;45.31;70648.31;5075851;28;20207;-78
2022/05/04 10:18:11;;;;;;;7.65;2.05;;;;;;;-145.69;48.40;70785.59;5075700;28;20199;-77
2022/05/04 10:20:40;;;;;;;5.82;1.90;;;;;;;-145.69;53.35;70817.41;5075423;28;20206;-77
2022/05/04 10:23:11;;;;;;;4.10;2.17;;;;;;;-145.69;58.00;70873.13;5075958;28;20207;-78
2022/05/04 10:25:38;;;;;;;6.22;1.95;;;;;;;-145.69;60.71;70916.91;5075943;28;20210;-77
2022/05/04 10:28:06;;;;;;;4.38;2.63;;;;;;;-145.69;62.79;70946.75;5075456;28;20604;-77
2022/05/04 10:30:34;;;;;;;4.28;2.33;;;;;;;-145.69;66.20;70958.69;5075281;28;20205;-77
2022/05/04 10:33:02;;;;;;;6.57;2.55;;;;;;;-145.69;69.02;71002.44;5075576;28;20301;-78
2022/05/04 10:35:37;;;;;;;3.25;2.45;;;;;;;-145.69;75.26;71032.28;5074964;28;20649;-78
2022/05/04 10:38:11;;;;;;;3.53;2.60;;;;;;;-145.69;78.44;71034.28;5075576;28;20295;-77
2022/05/04 10:40:38;;;;;;;4.78;2.58;;;;;;;-145.69;74.94;71044.22;5075336;28;20206;-77
2022/05/04 10:43:06;;;;;;;7.85;2.13;;;;;;;-145.69;69.44;71052.19;5075414;28;20233;-77
2022/05/04 10:45:36;;;;;;;3.97;2.30;;;;;;;-145.69;68.76;71062.13;5075513;28;20226;-76
2022/05/04 10:48:22;;;;;;;5.95;2.33;;;;;;;-145.69;71.55;71084.03;5075089;28;20600;-77
2022/05/04 10:50:49;;;;;;;6.70;2.47;;;;;;;-145.69;72.97;71078.06;5074328;28;20570;-77
2022/05/04 10:53:34;;;;;;;5.95;2.67;;;;;;;-145.69;77.53;71095.97;5075223;28;20202;-78
2022/05/04 10:56:04;;;;;;;5.78;2.70;;;;;;;-145.69;78.41;71088.00;5074174;28;20719;-76
2022/05/04 10:58:35;;;;;;;5.18;2.60;;;;;;;-145.69;83.63;71068.13;5075036;28;20219;-77
2022/05/04 11:01:04;;;;;;;5.28;2.65;;;;;;;-145.69;83.99;71082.03;5075331;28;20206;-77
2022/05/04 11:03:33;;;;;;;4.32;2.70;;;;;;;-145.69;84.75;71068.13;5074767;28;20320;-78
2022/05/04 11:06:03;;;;;;;4.82;2.40;;;;;;;-145.69;82.48;71103.94;5074965;28;20647;-77
2022/05/04 11:08:34;;;;;;;3.53;2.58;;;;;;;-145.69;84.88;71143.72;5074691;28;20706;-76
2022/05/04 11:11:01;;;;;;;5.40;2.45;;;;;;;-145.69;83.99;71183.50;5075187;28;20235;-77
2022/05/04 11:13:27;;;;;;;6.50;3.08;;;;;;;-145.69;86.65;71205.41;5074925;28;20198;-76
2022/05/04 11:15:54;;;;;;;8.00;3.17;;;;;;;-145.69;86.88;71235.25;5074832;28;20557;-77
2022/05/04 11:18:23;;;;;;;5.43;2.90;;;;;;;-145.69;89.32;71275.03;5074690;28;20647;-77
2022/05/04 11:20:51;;;;;;;4.03;2.47;;;;;;;-145.69;86.10;71288.97;5074575;28;20194;-76
2022/05/04 11:23:23;;;;;;;4.65;2.88;;;;;;;-145.69;86.56;71314.84;5074837;28;20202;-77
2022/05/04 11:25:50;;;;;;;5.40;2.55;;;;;;;-145.69;91.13;71342.69;5074516;28;20767;-77
2022/05/04 11:28:19;;;;;;;4.97;2.95;;;;;;;-145.69;98.10;71384.47;5074779;28;20286;-77
2022/05/04 11:30:45;;;;;;;8.52;3.20;;;;;;;-145.69;100.00;71444.19;5074372;28;20638;-76
2022/05/04 11:33:14;;;;;;;6.70;3.15;;;;;;;-145.69;100.00;71474.03;5073556;28;20229;-76
2022/05/04 11:35:43;;;;;;;4.50;3.13;;;;;;;-145.69;100.00;71503.88;5063797;28;20597;-77
2022/05/04 11:38:17;;;;;;;8.13;3.35;;;;;;;-145.69;100.00;71521.78;5054426;28;20257;-76
2022/05/04 11:40:46;;;;;;;8.35;3.80;;;;;;;-145.69;100.00;71541.69;5067526;28;20306;-76
2022/05/04 11:43:22;;;;;;;7.67;3.63;;;;;;;-145.69;100.00;71593.44;5073884;28;20281;-76
2022/05/04 11:45:49;;;;;;;9.50;3.70;;;;;;;-145.69;100.00;71629.25;5074012;28;20226;-76
2022/05/04 11:48:16;;;;;;;8.80;3.80;;;;;;;-145.69;100.00;71677.00;5073842;28;20649;-77
2022/05/04 11:50:44;;;;;;;9.43;4.03;;;;;;;-145.69;100.00;71675.00;5073083;28;20441;-76
2022/05/04 11:53:11;;;;;;;7.87;3.80;;;;;;;-145.69;100.00;71684.97;5073953;28;20199;-76
2022/05/04 11:55:38;;;;;;;9.30;3.90;;;;;;;-145.69;100.00;71686.97;5074091;28;20203;-76